This is the latest recevied weather packets stored in our database for station/object JA3QOS-13. If no packets are shown the sender has not sent any weather packets the latest 10 day(s).
| Time | Temp. | Humidity | Pressure | Rain* | Wind** | Luminosity | Snow |
|---|---|---|---|---|---|---|---|
| 1787580004 | 23.33° C | 97% | 1015.8 hPa | 0 mm | - | - | - |
| 1787578204 | 23.89° C | 95% | 1015.4 hPa | 0 mm | - | - | - |
| 1787576404 | 24.44° C | 94% | 1015.4 hPa | 0 mm | - | - | - |
| 1787574604 | 24.44° C | 94% | 1015.7 hPa | 0 mm | - | - | - |
| 1787572804 | 24.44° C | 93% | 1015.8 hPa | 0 mm | - | - | - |
| 1787571005 | 24.44° C | 94% | 1015.6 hPa | 0 mm | - | - | - |
| 1787569203 | 25° C | 92% | 1015.5 hPa | 0 mm | - | - | - |
| 1787567404 | 25.56° C | 88% | 1014.9 hPa | 0 mm | - | - | - |
| 1787565604 | 26.67° C | 84% | 1014.7 hPa | 0 mm | - | - | - |
| 1787563804 | 26.67° C | 84% | 1014.8 hPa | 0 mm | - | - | - |
| 1787562004 | 28.33° C | 82% | 1014.4 hPa | 0 mm | - | - | - |
| 1787560204 | 28.89° C | 79% | 1014.4 hPa | 0 mm | - | - | - |
| 1787558404 | 30° C | 78% | 1014.4 hPa | 0 mm | - | - | - |
| 1787556603 | 31.11° C | 74% | 1014.5 hPa | 0 mm | - | - | - |
| 1787554804 | 31.67° C | 73% | 1014.3 hPa | 0 mm | - | - | - |
| 1787553003 | 32.22° C | 72% | 1014.1 hPa | 0 mm | - | - | - |
| 1787551204 | 33.33° C | 63% | 1014.2 hPa | 0 mm | - | - | - |
| 1787549404 | 31.11° C | 71% | 1014.5 hPa | 0 mm | - | - | - |
| 1787547604 | 31.67° C | 72% | 1014.9 hPa | 0 mm | - | - | - |
| 1787545804 | 30.56° C | 79% | 1015.2 hPa | 0 mm | - | - | - |
| 1787544004 | 31.11° C | 80% | 1015.3 hPa | 0 mm | - | - | - |
| 1787542204 | 31.11° C | 73% | 1015.6 hPa | 0 mm | - | - | - |
| 1787540403 | 30.56° C | 79% | 1015.7 hPa | 0 mm | - | - | - |
| 1787538604 | 30.56° C | 80% | 1016.1 hPa | 0 mm | - | - | - |
| 1787536803 | 28.89° C | 82% | 1016.2 hPa | 0 mm | - | - | - |
* Rain latest hour (hover to see other rain measurements)
** Current wind speed in m/s (hover to see current wind gust speed)